createdAt,value
2018-04-22T00:01:15.716Z,12.87
2018-04-22T00:03:44.540Z,12.73
2018-04-22T00:06:11.993Z,13.17
2018-04-22T00:08:39.464Z,12.63
2018-04-22T00:11:06.927Z,13.10
2018-04-22T00:13:35.224Z,13.27
2018-04-22T00:16:02.684Z,13.13
2018-04-22T00:18:30.141Z,12.23
2018-04-22T00:20:57.617Z,12.90
2018-04-22T00:23:25.872Z,13.27
2018-04-22T00:25:53.901Z,12.83
2018-04-22T00:28:21.817Z,12.17
2018-04-22T00:30:49.892Z,12.87
2018-04-22T00:33:17.358Z,12.40
2018-04-22T00:35:45.972Z,13.70
2018-04-22T00:38:13.449Z,13.03
2018-04-22T00:40:40.917Z,13.17
2018-04-22T00:43:08.867Z,13.37
2018-04-22T00:45:36.431Z,14.17
2018-04-22T00:48:03.921Z,13.73
2018-04-22T00:50:31.951Z,13.27
2018-04-22T00:52:59.964Z,12.87
2018-04-22T00:55:27.958Z,13.97
2018-04-22T00:57:56.171Z,13.73
2018-04-22T01:00:23.718Z,12.97
2018-04-22T01:02:51.200Z,14.67
2018-04-22T01:05:18.682Z,13.80
2018-04-22T01:07:46.187Z,13.23
2018-04-22T01:10:13.645Z,13.93
2018-04-22T01:12:43.012Z,13.33
2018-04-22T01:15:10.491Z,13.50
2018-04-22T01:17:38.768Z,14.17
2018-04-22T01:20:07.016Z,13.63
2018-04-22T01:22:34.983Z,14.37
2018-04-22T01:25:02.451Z,15.60
2018-04-22T01:27:30.293Z,14.43
2018-04-22T01:29:58.176Z,14.33
2018-04-22T01:32:25.652Z,14.93
2018-04-22T01:34:53.887Z,14.57
2018-04-22T01:37:21.837Z,14.70
2018-04-22T01:39:49.336Z,14.27
2018-04-22T01:42:16.913Z,13.20
2018-04-22T01:44:46.436Z,14.77
2018-04-22T01:47:15.662Z,15.23
2018-04-22T01:49:43.154Z,13.87
2018-04-22T01:52:10.681Z,14.83
2018-04-22T01:54:38.970Z,14.63
2018-04-22T01:57:06.451Z,14.73
2018-04-22T01:59:33.909Z,16.23
2018-04-22T02:02:02.212Z,15.00
2018-04-22T02:04:30.442Z,15.43
2018-04-22T02:06:58.788Z,15.23
2018-04-22T02:09:26.297Z,15.53
2018-04-22T02:11:53.809Z,15.60
2018-04-22T02:14:21.840Z,16.50
2018-04-22T02:16:50.075Z,14.87
2018-04-22T02:19:17.557Z,16.03
2018-04-22T02:21:45.041Z,16.53
2018-04-22T02:24:13.354Z,16.73
2018-04-22T02:26:40.874Z,15.40
2018-04-22T02:29:09.652Z,15.90
2018-04-22T02:31:37.963Z,15.93
2018-04-22T02:34:05.541Z,15.03
2018-04-22T02:36:33.544Z,16.80
2018-04-22T02:39:01.457Z,16.23
2018-04-22T02:41:29.012Z,16.27
2018-04-22T02:43:56.570Z,16.07
2018-04-22T02:46:24.133Z,17.10
2018-04-22T02:48:51.629Z,16.33
2018-04-22T02:51:19.095Z,16.37
2018-04-22T02:53:46.555Z,16.83
2018-04-22T02:56:14.017Z,17.60
2018-04-22T02:58:41.703Z,16.23
2018-04-22T03:01:09.932Z,17.33
2018-04-22T03:03:37.412Z,16.93
2018-04-22T03:06:04.879Z,16.40
2018-04-22T03:08:32.332Z,16.10
2018-04-22T03:10:59.828Z,16.30
2018-04-22T03:13:27.999Z,14.87
2018-04-22T03:15:55.474Z,15.90
2018-04-22T03:18:22.923Z,16.40
2018-04-22T03:20:50.406Z,18.63
2018-04-22T03:23:17.864Z,17.13
2018-04-22T03:25:45.350Z,17.77
2018-04-22T03:28:13.355Z,17.03
2018-04-22T03:30:40.839Z,18.80
2018-04-22T03:33:08.297Z,19.43
2018-04-22T03:35:35.772Z,19.47
2018-04-22T03:38:03.236Z,19.80
2018-04-22T03:40:31.125Z,19.30
2018-04-22T03:42:59.887Z,18.90
2018-04-22T03:45:27.359Z,19.70
2018-04-22T03:47:54.807Z,19.87
2018-04-22T03:50:22.272Z,18.23
2018-04-22T03:52:49.732Z,18.77
2018-04-22T03:55:19.904Z,19.07
2018-04-22T03:57:47.364Z,18.20
2018-04-22T04:00:14.823Z,18.23
2018-04-22T04:02:42.991Z,18.97
2018-04-22T04:05:10.466Z,17.73
2018-04-22T04:07:38.192Z,18.90
2018-04-22T04:10:07.210Z,20.03
2018-04-22T04:12:34.665Z,18.83
2018-04-22T04:15:02.597Z,19.93
2018-04-22T04:17:31.255Z,19.13
2018-04-22T04:20:11.581Z,19.83
2018-04-22T04:22:44.057Z,19.30
2018-04-22T04:28:32.485Z,19.10
2018-04-22T04:31:02.784Z,18.67
2018-04-22T04:33:31.453Z,20.20
2018-04-22T04:35:58.980Z,19.60
2018-04-22T04:38:26.542Z,20.47
2018-04-22T04:40:54.209Z,20.23
2018-04-22T04:43:22.794Z,19.47
2018-04-22T04:45:50.630Z,19.90
2018-04-22T04:48:18.943Z,20.23
2018-04-22T04:50:46.468Z,19.47
2018-04-22T04:53:13.949Z,19.80
2018-04-22T04:55:41.597Z,18.57
2018-04-22T04:58:09.325Z,19.83
2018-04-22T05:00:40.075Z,20.13
2018-04-22T05:03:07.561Z,19.67
2018-04-22T05:05:35.049Z,19.40
2018-04-22T05:08:02.524Z,19.10
2018-04-22T05:10:31.152Z,18.53
2018-04-22T05:12:58.627Z,19.40
2018-04-22T05:15:26.132Z,18.67
2018-04-22T05:17:54.602Z,19.30
2018-04-22T05:20:23.432Z,18.60
2018-04-22T05:22:51.505Z,17.47
2018-04-22T05:25:19.021Z,17.17
2018-04-22T05:27:48.120Z,16.97
2018-04-22T05:30:15.590Z,17.67
2018-04-22T05:32:44.911Z,18.30
2018-04-22T05:35:12.465Z,17.20
2018-04-22T05:37:39.937Z,17.27
2018-04-22T05:40:07.425Z,17.07
2018-04-22T05:42:34.914Z,18.07
2018-04-22T05:45:02.413Z,17.03
2018-04-22T05:47:30.984Z,16.60
2018-04-22T05:49:58.484Z,16.70
2018-04-22T05:52:26.856Z,16.93
2018-04-22T05:54:54.388Z,16.67
2018-04-22T05:57:21.877Z,16.83
2018-04-22T05:59:51.189Z,15.85
2018-04-22T06:02:18.657Z,14.95
2018-04-22T06:04:46.229Z,14.30
2018-04-22T06:07:14.539Z,14.48
2018-04-22T06:09:42.372Z,13.75
2018-04-22T06:12:21.325Z,12.57
2018-04-22T06:14:49.771Z,13.62
2018-04-22T06:17:17.859Z,13.40
2018-04-22T06:19:47.259Z,13.15
2018-04-22T06:22:14.728Z,14.10
2018-04-22T06:24:48.280Z,12.37
2018-04-22T06:27:16.189Z,12.48
2018-04-22T06:29:50.850Z,11.15
2018-04-22T06:32:18.454Z,10.80
2018-04-22T06:34:45.936Z,11.73
2018-04-22T06:37:16.359Z,10.95
2018-04-22T06:39:44.635Z,11.43
2018-04-22T06:42:13.826Z,11.30
2018-04-22T06:44:43.218Z,10.75
2018-04-22T06:47:14.223Z,11.40
2018-04-22T06:49:44.134Z,12.20
2018-04-22T06:52:11.616Z,10.90
2018-04-22T06:54:40.167Z,11.02
2018-04-22T06:57:07.687Z,11.10
2018-04-22T06:59:36.370Z,10.77
2018-04-22T07:02:04.597Z,10.23
2018-04-22T07:04:32.764Z,10.55
2018-04-22T07:07:00.269Z,10.00
2018-04-22T07:09:28.847Z,10.15
2018-04-22T07:11:56.394Z,10.93
2018-04-22T07:14:24.384Z,11.05
2018-04-22T07:16:54.747Z,10.07
2018-04-22T07:19:23.624Z,10.40
2018-04-22T07:21:51.156Z,10.15
2018-04-22T07:24:28.759Z,9.02
2018-04-22T07:26:57.255Z,11.50
2018-04-22T07:29:25.527Z,9.90
2018-04-22T07:31:53.911Z,10.02
2018-04-22T07:34:22.372Z,10.93
2018-04-22T07:36:49.886Z,9.70
2018-04-22T07:39:17.781Z,10.43
2018-04-22T07:41:45.417Z,10.30
2018-04-22T07:44:13.503Z,10.18
2018-04-22T07:46:41.419Z,10.02
2018-04-22T07:49:09.749Z,9.10
2018-04-22T07:51:38.020Z,8.38
2018-04-22T07:54:05.507Z,10.00
2018-04-22T07:56:33.020Z,8.73
2018-04-22T07:59:00.497Z,9.65
2018-04-22T08:01:28.005Z,9.23
2018-04-22T08:03:56.276Z,7.97
2018-04-22T08:06:24.652Z,9.18
2018-04-22T08:08:53.345Z,9.07
2018-04-22T08:11:21.593Z,8.65
2018-04-22T08:13:49.874Z,8.05
2018-04-22T08:16:20.432Z,7.62
2018-04-22T08:18:47.929Z,7.82
2018-04-22T08:21:15.419Z,10.43
2018-04-22T08:23:42.871Z,8.75
2018-04-22T08:26:10.363Z,10.82
2018-04-22T08:28:38.592Z,10.90
2018-04-22T08:31:09.121Z,10.57
2018-04-22T08:33:37.182Z,9.82
2018-04-22T08:36:04.652Z,8.88
2018-04-22T08:38:32.763Z,8.68
2018-04-22T08:41:01.002Z,11.55
2018-04-22T08:43:28.509Z,12.20
2018-04-22T08:45:56.733Z,10.38
2018-04-22T08:48:24.865Z,9.48
2018-04-22T08:50:52.358Z,10.48
2018-04-22T08:53:20.244Z,11.50
2018-04-22T08:55:47.724Z,11.45
2018-04-22T08:58:15.964Z,10.65
2018-04-22T09:00:43.880Z,10.02
2018-04-22T09:03:12.184Z,12.00
2018-04-22T09:05:39.682Z,11.65
2018-04-22T09:08:07.174Z,10.88
2018-04-22T09:10:35.444Z,11.07
2018-04-22T09:13:05.029Z,10.45
2018-04-22T09:15:32.504Z,12.00
2018-04-22T09:18:01.318Z,12.30
2018-04-22T09:20:28.924Z,10.52
2018-04-22T09:22:56.836Z,11.82
2018-04-22T09:25:26.841Z,12.35
2018-04-22T09:27:55.093Z,12.55
2018-04-22T09:30:24.363Z,12.02
2018-04-22T09:32:52.004Z,13.13
2018-04-22T09:35:19.572Z,13.27
2018-04-22T09:37:47.905Z,11.68
2018-04-22T09:40:15.767Z,12.60
2018-04-22T09:42:43.265Z,13.62
2018-04-22T09:45:16.688Z,12.52
2018-04-22T09:47:44.273Z,12.27
2018-04-22T09:50:11.761Z,11.75
2018-04-22T09:52:40.071Z,9.90
2018-04-22T09:55:07.551Z,12.02
2018-04-22T09:57:35.022Z,12.98
2018-04-22T10:00:02.488Z,10.95
2018-04-22T10:02:32.885Z,12.50
2018-04-22T10:05:05.988Z,12.20
2018-04-22T10:07:33.457Z,12.77
2018-04-22T10:10:01.506Z,12.15
2018-04-22T10:12:28.970Z,12.95
2018-04-22T10:14:56.508Z,11.88
2018-04-22T10:17:24.012Z,12.45
2018-04-22T10:19:51.486Z,11.77
2018-04-22T10:22:19.711Z,10.57
2018-04-22T10:24:47.206Z,12.07
2018-04-22T10:27:16.614Z,11.73
2018-04-22T10:29:44.067Z,11.75
2018-04-22T10:32:12.156Z,13.98
2018-04-22T10:34:41.440Z,10.93
2018-04-22T10:37:09.489Z,12.32
2018-04-22T10:39:40.850Z,12.88
2018-04-22T10:42:08.390Z,11.88
2018-04-22T10:44:35.861Z,14.70
2018-04-22T10:55:44.973Z,10.15
2018-04-22T10:58:12.487Z,12.80
2018-04-22T11:00:39.940Z,10.43
2018-04-22T11:03:07.396Z,13.10
2018-04-22T11:05:34.862Z,13.85
2018-04-22T11:08:02.894Z,12.80
2018-04-22T11:10:30.352Z,13.32
2018-04-22T11:12:57.824Z,13.95
2018-04-22T11:15:25.860Z,14.95
2018-04-22T11:17:53.317Z,13.27
2018-04-22T11:20:20.865Z,14.77
2018-04-22T11:22:48.321Z,14.25
2018-04-22T11:25:15.784Z,12.73
2018-04-22T11:27:43.263Z,14.52
2018-04-22T11:30:10.741Z,15.50
2018-04-22T11:32:38.288Z,13.32
2018-04-22T11:35:06.933Z,13.60
2018-04-22T11:37:35.012Z,15.18
2018-04-22T11:40:03.403Z,12.85
2018-04-22T11:42:30.967Z,11.90
2018-04-22T11:44:58.644Z,14.05
2018-04-22T11:47:26.110Z,14.05
2018-04-22T11:49:53.586Z,14.10
2018-04-22T11:52:21.048Z,11.40
2018-04-22T11:54:48.820Z,13.02
2018-04-22T11:57:17.085Z,11.82
2018-04-22T11:59:46.060Z,13.50
2018-04-22T12:02:13.504Z,12.13
2018-04-22T12:04:40.974Z,13.55
2018-04-22T12:07:08.872Z,18.48
2018-04-22T12:09:37.155Z,23.60
2018-04-22T12:12:05.377Z,14.68
2018-04-22T12:14:33.552Z,11.52
2018-04-22T12:17:01.016Z,12.23
2018-04-22T12:19:28.551Z,11.52
2018-04-22T12:21:56.008Z,10.50
2018-04-22T12:24:23.469Z,13.05
2018-04-22T12:26:51.743Z,11.43
2018-04-22T12:29:20.007Z,11.82
2018-04-22T12:31:47.520Z,9.45
2018-04-22T12:34:14.924Z,9.10
2018-04-22T12:36:42.376Z,10.05
2018-04-22T12:39:09.841Z,9.93
2018-04-22T12:41:37.881Z,25.37
2018-04-22T12:44:07.116Z,8.85
2018-04-22T12:46:34.665Z,10.35
2018-04-22T12:49:02.134Z,8.88
2018-04-22T12:51:29.596Z,9.32
2018-04-22T12:53:57.059Z,9.60
2018-04-22T12:56:24.508Z,7.07
2018-04-22T12:58:52.024Z,8.85
2018-04-22T13:01:20.251Z,8.40
2018-04-22T13:03:47.704Z,8.15
2018-04-22T13:06:15.169Z,7.68
2018-04-22T13:08:42.619Z,7.85
2018-04-22T13:11:10.476Z,6.40
2018-04-22T13:13:37.938Z,5.40
2018-04-22T13:16:05.989Z,3.67
2018-04-22T13:18:33.441Z,4.20
2018-04-22T13:21:02.049Z,3.40
2018-04-22T13:23:29.498Z,4.00
2018-04-22T13:25:57.747Z,4.12
2018-04-22T13:28:25.980Z,3.45
2018-04-22T13:30:54.048Z,4.18
2018-04-22T13:33:21.492Z,4.50
2018-04-22T13:35:48.945Z,3.78
2018-04-22T13:38:16.408Z,3.62
2018-04-22T13:40:45.926Z,4.53
2018-04-22T13:43:13.380Z,4.05
2018-04-22T13:45:40.831Z,3.83
2018-04-22T13:48:08.292Z,4.30
2018-04-22T13:50:35.753Z,3.90
2018-04-22T13:53:03.196Z,3.20
2018-04-22T13:55:30.676Z,3.28
2018-04-22T13:57:58.670Z,2.85
2018-04-22T14:00:26.129Z,3.05
2018-04-22T14:02:53.603Z,3.08
2018-04-22T14:05:21.807Z,2.92
2018-04-22T14:07:50.284Z,3.00
2018-04-22T14:10:17.741Z,2.67
2018-04-22T14:12:45.198Z,3.40
2018-04-22T14:15:13.504Z,3.65
2018-04-22T14:17:40.966Z,3.53
2018-04-22T14:20:08.418Z,2.90
2018-04-22T14:22:37.111Z,3.05
2018-04-22T14:25:04.598Z,3.00
2018-04-22T14:27:32.811Z,3.00
2018-04-22T14:30:00.293Z,3.05
2018-04-22T14:32:28.003Z,3.15
2018-04-22T14:34:56.042Z,3.30
2018-04-22T14:37:23.502Z,3.25
2018-04-22T14:39:50.960Z,3.37
2018-04-22T14:42:18.425Z,3.28
2018-04-22T14:44:58.563Z,3.12
2018-04-22T14:47:26.047Z,3.47
2018-04-22T14:49:54.259Z,3.17
2018-04-22T14:52:21.729Z,3.72
2018-04-22T14:54:49.191Z,3.15
2018-04-22T14:57:17.483Z,2.72
2018-04-22T14:59:44.944Z,3.03
2018-04-22T15:02:12.406Z,3.33
2018-04-22T15:04:39.855Z,2.97
2018-04-22T15:07:07.741Z,2.87
2018-04-22T15:09:35.620Z,3.22
2018-04-22T15:12:03.847Z,3.22
2018-04-22T15:14:31.314Z,2.70
2018-04-22T15:16:59.591Z,2.30
2018-04-22T15:19:27.080Z,2.47
2018-04-22T15:21:54.496Z,2.70
2018-04-22T15:24:21.947Z,2.37
2018-04-22T15:26:49.485Z,2.50
2018-04-22T15:29:16.942Z,2.95
2018-04-22T15:31:44.396Z,2.70
2018-04-22T15:34:11.865Z,2.47
2018-04-22T15:36:39.324Z,2.70
2018-04-22T15:39:06.887Z,2.45
2018-04-22T15:41:34.345Z,2.22
2018-04-22T15:44:01.837Z,2.33
2018-04-22T15:46:29.337Z,2.42
2018-04-22T15:48:57.223Z,2.10
2018-04-22T15:51:24.719Z,1.80
2018-04-22T15:53:52.748Z,2.37
2018-04-22T15:56:20.266Z,2.22
2018-04-22T15:58:48.777Z,2.20
2018-04-22T16:01:16.224Z,1.92
2018-04-22T16:03:50.463Z,2.20
2018-04-22T16:06:17.948Z,2.00
2018-04-22T16:08:45.405Z,1.83
2018-04-22T16:11:12.868Z,2.25
2018-04-22T16:13:41.090Z,2.58
2018-04-22T16:16:08.547Z,2.37
2018-04-22T16:18:38.799Z,2.17
2018-04-22T16:21:06.757Z,2.50
2018-04-22T16:23:34.226Z,2.30
2018-04-22T16:26:02.707Z,2.17
2018-04-22T16:28:30.157Z,2.20
2018-04-22T16:30:57.612Z,2.17
2018-04-22T16:33:25.124Z,2.20
2018-04-22T16:35:53.037Z,2.17
2018-04-22T16:38:20.566Z,1.95
2018-04-22T16:40:48.780Z,2.08
2018-04-22T16:43:16.242Z,1.73
2018-04-22T16:45:44.688Z,2.00
2018-04-22T16:48:12.389Z,2.20
2018-04-22T16:50:40.442Z,1.92
2018-04-22T16:53:08.846Z,1.95
2018-04-22T16:55:37.533Z,2.00
2018-04-22T16:58:05.629Z,2.12
2018-04-22T17:00:34.458Z,2.30
2018-04-22T17:03:02.026Z,2.12
2018-04-22T17:05:29.936Z,1.90
2018-04-22T17:07:57.521Z,2.20
2018-04-22T17:10:25.744Z,1.83
2018-04-22T17:12:53.787Z,2.03
2018-04-22T17:15:22.180Z,2.17
2018-04-22T17:17:49.818Z,2.12
2018-04-22T17:20:18.054Z,2.05
2018-04-22T17:22:45.895Z,2.03
2018-04-22T17:25:13.340Z,2.35
2018-04-22T17:27:40.805Z,2.05
2018-04-22T17:30:09.260Z,2.10
2018-04-22T17:32:36.748Z,2.47
2018-04-22T17:35:04.379Z,2.28
2018-04-22T17:37:31.878Z,2.30
2018-04-22T17:39:59.343Z,1.85
2018-04-22T17:42:26.795Z,2.10
2018-04-22T17:44:54.273Z,2.05
2018-04-22T17:47:22.361Z,1.85
2018-04-22T17:49:50.693Z,2.03
2018-04-22T17:52:18.586Z,2.28
2018-04-22T17:54:46.518Z,2.10
2018-04-22T17:57:14.024Z,1.85
2018-04-22T17:59:41.478Z,2.00
2018-04-22T18:02:08.935Z,2.10
2018-04-22T18:04:36.438Z,2.05
2018-04-22T18:07:04.340Z,2.10
2018-04-22T18:09:31.788Z,2.53
2018-04-22T18:11:59.262Z,2.47
2018-04-22T18:14:27.284Z,2.30
2018-04-22T18:16:56.128Z,2.33
2018-04-22T18:19:23.587Z,2.10
2018-04-22T18:21:51.156Z,2.25
2018-04-22T18:24:18.855Z,2.15
2018-04-22T18:26:46.523Z,1.98
2018-04-22T18:29:15.184Z,2.47
2018-04-22T18:31:43.960Z,2.00
2018-04-22T18:34:12.192Z,2.60
2018-04-22T18:36:39.655Z,2.17
2018-04-22T18:39:07.162Z,2.10
2018-04-22T18:41:35.476Z,2.58
2018-04-22T18:44:02.944Z,1.98
2018-04-22T18:46:31.772Z,2.67
2018-04-22T18:48:59.223Z,2.10
2018-04-22T18:51:27.139Z,2.10
2018-04-22T18:53:54.607Z,2.10
2018-04-22T18:56:22.065Z,2.30
2018-04-22T18:58:49.560Z,1.98
2018-04-22T19:01:18.407Z,2.50
2018-04-22T19:03:45.914Z,2.12
2018-04-22T19:06:13.834Z,2.03
2018-04-22T19:08:41.313Z,2.00
2018-04-22T19:11:08.786Z,2.50
2018-04-22T19:13:36.761Z,2.10
2018-04-22T19:16:05.639Z,2.47
2018-04-22T19:18:33.736Z,1.87
2018-04-22T19:21:01.185Z,2.05
2018-04-22T19:23:28.655Z,2.85
2018-04-22T19:25:56.889Z,2.12
2018-04-22T19:28:28.152Z,2.00
2018-04-22T19:30:55.607Z,1.80
2018-04-22T19:33:23.061Z,2.05
2018-04-22T19:35:50.521Z,2.20
2018-04-22T19:38:18.230Z,2.30
2018-04-22T19:40:45.683Z,1.98
2018-04-22T19:43:13.138Z,2.25
2018-04-22T19:45:40.610Z,2.03
2018-04-22T19:48:08.630Z,2.08
2018-04-22T19:50:36.102Z,1.77
2018-04-22T19:53:03.976Z,2.35
2018-04-22T19:55:32.196Z,2.28
2018-04-22T19:57:59.653Z,2.60
2018-04-22T20:00:27.528Z,1.92
2018-04-22T20:02:55.031Z,1.92
2018-04-22T20:05:22.448Z,2.22
2018-04-22T20:07:50.903Z,2.17
2018-04-22T20:10:18.377Z,2.28
2018-04-22T20:12:45.842Z,2.28
2018-04-22T20:15:13.375Z,2.15
2018-04-22T20:17:40.840Z,2.28
2018-04-22T20:20:08.580Z,2.60
2018-04-22T20:22:37.339Z,2.20
2018-04-22T20:25:04.855Z,2.17
2018-04-22T20:27:33.032Z,2.12
2018-04-22T20:30:00.528Z,2.10
2018-04-22T20:32:27.981Z,2.53
2018-04-22T20:34:56.262Z,2.03
2018-04-22T20:37:23.770Z,2.12
2018-04-22T20:39:51.244Z,2.25
2018-04-22T20:42:18.700Z,2.05
2018-04-22T20:44:46.386Z,2.53
2018-04-22T20:47:13.840Z,2.30
2018-04-22T20:49:41.292Z,2.58
2018-04-22T20:52:08.761Z,2.45
2018-04-22T20:54:36.216Z,2.15
2018-04-22T20:57:03.820Z,2.53
2018-04-22T20:59:31.491Z,2.45
2018-04-22T21:01:58.960Z,2.53
2018-04-22T21:04:27.064Z,2.15
2018-04-22T21:06:54.592Z,2.40
2018-04-22T21:09:22.135Z,2.58
2018-04-22T21:11:49.607Z,2.70
2018-04-22T21:14:17.073Z,2.90
2018-04-22T21:16:44.541Z,2.58
2018-04-22T21:19:11.996Z,2.60
2018-04-22T21:21:39.475Z,3.22
2018-04-22T21:24:06.981Z,2.95
2018-04-22T21:26:34.490Z,2.67
2018-04-22T21:29:01.940Z,2.87
2018-04-22T21:31:29.400Z,2.90
2018-04-22T21:33:56.889Z,3.17
2018-04-22T21:36:24.313Z,2.62
2018-04-22T21:38:51.770Z,2.40
2018-04-22T21:41:19.227Z,2.20
2018-04-22T21:43:46.683Z,2.20
2018-04-22T21:46:14.140Z,2.47
2018-04-22T21:48:41.604Z,1.98
2018-04-22T21:51:09.608Z,2.33
2018-04-22T21:53:37.065Z,2.53
2018-04-22T21:56:07.495Z,2.07
2018-04-22T21:58:34.919Z,2.60
2018-04-22T22:01:02.364Z,2.60
2018-04-22T22:03:31.812Z,2.30
2018-04-22T22:05:59.502Z,2.43
2018-04-22T22:08:26.989Z,2.37
2018-04-22T22:10:54.429Z,2.75
2018-04-22T22:13:21.889Z,2.40
2018-04-22T22:15:49.340Z,2.60
2018-04-22T22:18:16.808Z,2.40
2018-04-22T22:20:44.262Z,2.47
2018-04-22T22:23:11.716Z,2.33
2018-04-22T22:25:39.328Z,2.43
2018-04-22T22:28:07.047Z,2.65
2018-04-22T22:30:34.496Z,2.80
2018-04-22T22:33:01.951Z,2.70
2018-04-22T22:35:29.400Z,2.93
2018-04-22T22:37:56.865Z,2.80
2018-04-22T22:40:24.736Z,2.60
2018-04-22T22:42:52.203Z,2.70
2018-04-22T22:45:19.656Z,2.60
2018-04-22T22:47:47.104Z,2.77
2018-04-22T22:50:14.561Z,2.67
2018-04-22T22:52:42.012Z,2.73
2018-04-22T22:55:09.475Z,2.43
2018-04-22T22:57:37.048Z,2.30
2018-04-22T23:00:04.497Z,2.63
2018-04-22T23:02:32.516Z,2.67
2018-04-22T23:05:00.741Z,2.70
2018-04-22T23:07:28.192Z,2.57
2018-04-22T23:09:55.652Z,2.60
2018-04-22T23:12:23.139Z,2.67
2018-04-22T23:14:51.324Z,3.10
2018-04-22T23:17:19.544Z,2.43
2018-04-22T23:19:47.424Z,2.80
2018-04-22T23:22:14.871Z,2.60
2018-04-22T23:24:42.328Z,2.77
2018-04-22T23:27:09.987Z,2.90
2018-04-22T23:29:37.482Z,3.90
2018-04-22T23:32:04.936Z,3.20
2018-04-22T23:34:33.168Z,2.67
2018-04-22T23:37:00.623Z,2.67
2018-04-22T23:39:28.080Z,2.70
2018-04-22T23:41:55.794Z,3.03
2018-04-22T23:44:26.007Z,2.90
2018-04-22T23:46:53.467Z,2.73
2018-04-22T23:49:20.944Z,3.00
2018-04-22T23:51:49.164Z,3.50
2018-04-22T23:54:16.617Z,3.23
2018-04-22T23:56:44.073Z,3.47
2018-04-22T23:59:11.524Z,3.33
